Time;durP1;ratioP1;P1;durP2;ratioP2;P2;SDS_P1;SDS_P2;PMS_P1;PMS_P2;Temp;Humidity;BMP_temperature;BMP_pressure;BME280_temperature;BME280_humidity;BME280_pressure;Samples;Min_cycle;Max_cycle;Signal;HPM_P1;HPM_P2
2022/07/08 00:00:42;;;;;;;14.40;2.40;;;16.30;99.90;;;;;;4952851;28;20935;-69
2022/07/08 00:03:07;;;;;;;9.50;2.50;;;16.20;99.90;;;;;;4953931;29;20090;-69
2022/07/08 00:05:33;;;;;;;13.53;2.30;;;16.20;99.90;;;;;;4937825;29;20051;-69
2022/07/08 00:07:59;;;;;;;10.73;2.30;;;16.20;99.90;;;;;;4954724;28;20051;-69
2022/07/08 00:10:25;;;;;;;10.27;1.90;;;16.10;99.90;;;;;;4954722;28;20054;-69
2022/07/08 00:12:51;;;;;;;10.50;2.83;;;16.10;99.90;;;;;;4954883;28;20406;-69
2022/07/08 00:15:17;;;;;;;11.07;2.37;;;16.10;99.90;;;;;;4954713;28;20039;-68
2022/07/08 00:17:42;;;;;;;13.97;2.20;;;16.10;99.90;;;;;;4937245;29;20059;-69
2022/07/08 00:20:09;;;;;;;9.63;2.40;;;16.10;99.90;;;;;;4954661;29;20051;-68
2022/07/08 00:22:36;;;;;;;16.10;2.60;;;16.10;99.90;;;;;;4954205;28;20082;-68
2022/07/08 00:25:03;;;;;;;6.80;1.97;;;16.10;99.90;;;;;;4953597;29;20047;-68
2022/07/08 00:27:28;;;;;;;9.30;2.70;;;16.00;99.90;;;;;;4954202;28;20145;-69
2022/07/08 00:29:54;;;;;;;10.13;2.23;;;16.00;99.90;;;;;;4953956;29;20134;-68
2022/07/08 00:32:20;;;;;;;12.93;2.53;;;16.00;99.90;;;;;;4954652;28;20074;-69
2022/07/08 00:34:45;;;;;;;12.87;2.33;;;15.90;99.90;;;;;;4954219;29;20495;-69
2022/07/08 00:37:11;;;;;;;13.63;2.90;;;15.90;99.90;;;;;;4953240;29;20503;-69
2022/07/08 00:39:37;;;;;;;13.33;2.47;;;15.90;99.90;;;;;;4954446;29;20062;-69
2022/07/08 00:42:04;;;;;;;12.03;2.40;;;15.90;99.90;;;;;;4954435;29;20043;-69
2022/07/08 00:44:30;;;;;;;12.47;2.70;;;15.90;99.90;;;;;;4953344;29;20051;-69
2022/07/08 00:46:56;;;;;;;12.90;2.73;;;15.90;99.90;;;;;;4954480;29;20122;-69
2022/07/08 00:49:22;;;;;;;12.20;2.13;;;15.90;99.90;;;;;;4953349;29;20054;-69
2022/07/08 00:51:48;;;;;;;13.97;2.87;;;15.80;99.90;;;;;;4954139;29;20047;-70
2022/07/08 00:54:21;;;;;;;8.33;2.33;;;15.80;99.90;;;;;;4954633;28;20074;-70
2022/07/08 00:56:47;;;;;;;10.23;2.10;;;15.80;99.90;;;;;;4953346;29;20058;-70
2022/07/08 00:59:13;;;;;;;13.40;2.40;;;15.70;99.90;;;;;;4953453;29;20047;-69
2022/07/08 01:01:38;;;;;;;12.17;2.57;;;15.70;99.90;;;;;;4936932;29;20376;-69
2022/07/08 01:04:04;;;;;;;12.20;2.70;;;15.60;99.90;;;;;;4953344;29;20052;-69
2022/07/08 01:06:30;;;;;;;11.67;2.10;;;15.60;99.90;;;;;;4954130;28;20562;-71
2022/07/08 01:08:56;;;;;;;9.57;1.97;;;15.60;99.90;;;;;;4954275;29;20055;-70
2022/07/08 01:11:22;;;;;;;14.83;3.20;;;15.60;99.90;;;;;;4955361;28;20047;-70
2022/07/08 01:13:48;;;;;;;10.53;2.03;;;15.60;99.90;;;;;;4957445;28;20047;-70
2022/07/08 01:16:14;;;;;;;10.87;2.50;;;15.60;99.90;;;;;;4941077;29;20283;-70
2022/07/08 01:18:41;;;;;;;11.20;2.00;;;15.60;99.90;;;;;;4957490;29;20051;-69
2022/07/08 01:21:07;;;;;;;11.43;2.33;;;15.50;99.90;;;;;;4957610;28;20479;-70
2022/07/08 01:23:34;;;;;;;9.67;2.07;;;15.50;99.90;;;;;;4956274;29;20275;-70
2022/07/08 01:26:00;;;;;;;12.57;1.80;;;15.40;99.90;;;;;;4956825;29;20327;-69
2022/07/08 01:28:26;;;;;;;11.50;2.50;;;15.40;99.90;;;;;;4956171;29;20397;-69
2022/07/08 01:30:52;;;;;;;11.37;1.90;;;15.40;99.90;;;;;;4956211;29;20406;-70
2022/07/08 01:33:18;;;;;;;14.60;3.07;;;15.30;99.90;;;;;;4956404;29;20361;-70
2022/07/08 01:35:44;;;;;;;12.00;2.60;;;15.20;99.90;;;;;;4956352;29;20051;-70
2022/07/08 01:38:10;;;;;;;11.90;2.50;;;15.20;99.90;;;;;;4957454;28;20639;-70
2022/07/08 01:40:36;;;;;;;11.17;2.37;;;15.20;99.90;;;;;;4957144;28;20055;-70
2022/07/08 01:43:02;;;;;;;11.80;2.27;;;15.10;99.90;;;;;;4957385;28;20093;-70
2022/07/08 01:45:28;;;;;;;8.70;2.13;;;15.10;99.90;;;;;;4957376;28;20051;-68
2022/07/08 01:47:53;;;;;;;13.03;2.27;;;15.10;99.90;;;;;;4956860;29;20279;-68
2022/07/08 01:50:19;;;;;;;11.30;2.40;;;15.00;99.90;;;;;;4956097;29;20082;-68
2022/07/08 01:52:45;;;;;;;13.87;2.40;;;15.00;99.90;;;;;;4955785;29;20073;-68
2022/07/08 01:55:10;;;;;;;10.70;2.13;;;15.00;99.90;;;;;;4957254;29;20550;-68
2022/07/08 01:57:36;;;;;;;12.00;2.30;;;14.90;99.90;;;;;;4955860;29;20055;-69
2022/07/08 02:00:04;;;;;;;9.70;2.40;;;14.80;99.90;;;;;;4939971;29;20039;-68
2022/07/08 02:02:30;;;;;;;12.77;2.17;;;14.80;99.90;;;;;;4955525;29;20055;-68
2022/07/08 02:04:56;;;;;;;12.37;2.03;;;14.80;99.90;;;;;;4939894;29;20669;-68
2022/07/08 02:07:22;;;;;;;11.90;1.80;;;14.70;99.90;;;;;;4956922;29;20047;-68
2022/07/08 02:09:47;;;;;;;15.13;3.00;;;14.70;99.90;;;;;;4955784;29;20488;-68
2022/07/08 02:12:19;;;;;;;9.53;2.00;;;14.60;99.90;;;;;;4956971;29;20047;-69
2022/07/08 02:14:46;;;;;;;7.93;2.17;;;14.70;99.90;;;;;;4956630;29;20070;-69
2022/07/08 02:17:12;;;;;;;12.50;2.30;;;14.70;99.90;;;;;;4955672;29;20294;-69
2022/07/08 02:19:38;;;;;;;6.70;1.63;;;14.60;99.90;;;;;;4955621;29;20286;-73
2022/07/08 02:22:04;;;;;;;8.23;2.70;;;;;;;;;;4956555;28;20651;-68
2022/07/08 02:24:30;;;;;;;13.23;2.40;;;14.60;99.90;;;;;;4955949;29;20407;-69
2022/07/08 02:26:56;;;;;;;15.97;2.77;;;14.60;99.90;;;;;;4955983;29;20301;-69
2022/07/08 02:29:22;;;;;;;12.40;1.90;;;14.50;99.90;;;;;;4956421;28;20063;-68
2022/07/08 02:31:47;;;;;;;9.53;2.03;;;14.50;99.90;;;;;;4955090;29;20074;-69
2022/07/08 02:34:13;;;;;;;11.00;1.70;;;14.40;99.90;;;;;;4955629;29;20085;-68
2022/07/08 02:36:39;;;;;;;10.93;2.13;;;14.40;99.90;;;;;;4956365;28;20047;-68
2022/07/08 02:39:04;;;;;;;10.43;2.40;;;14.40;99.90;;;;;;4956077;29;20053;-68
2022/07/08 02:41:31;;;;;;;10.03;2.40;;;14.40;99.90;;;;;;4956050;29;20047;-68
2022/07/08 02:43:57;;;;;;;14.07;1.87;;;14.40;99.90;;;;;;4955921;28;20047;-68
2022/07/08 02:46:22;;;;;;;11.60;2.83;;;14.30;99.90;;;;;;4956093;28;20327;-68
2022/07/08 02:48:48;;;;;;;8.50;2.40;;;14.30;99.90;;;;;;4955938;29;20290;-69
2022/07/08 02:51:14;;;;;;;12.53;2.20;;;14.30;99.90;;;;;;4956218;28;20550;-69
2022/07/08 02:53:40;;;;;;;8.93;2.43;;;14.20;99.90;;;;;;4955998;28;20558;-68
2022/07/08 02:56:06;;;;;;;10.60;1.93;;;14.20;99.90;;;;;;4955776;29;20054;-68
2022/07/08 02:58:31;;;;;;;12.43;2.67;;;14.20;99.90;;;;;;4954799;29;20047;-68
2022/07/08 03:00:57;;;;;;;11.53;2.17;;;14.10;99.90;;;;;;4954420;29;20306;-69
2022/07/08 03:03:23;;;;;;;11.40;2.03;;;14.10;99.90;;;;;;4955984;29;20051;-68
2022/07/08 03:05:48;;;;;;;8.77;1.90;;;14.10;99.90;;;;;;4955741;29;20054;-68
2022/07/08 03:08:14;;;;;;;9.07;2.33;;;14.10;99.90;;;;;;4955754;29;20055;-68
2022/07/08 03:10:40;;;;;;;9.60;2.17;;;14.10;99.90;;;;;;4955681;29;20134;-68
2022/07/08 03:13:06;;;;;;;10.80;2.33;;;14.10;99.90;;;;;;4954361;29;20051;-68
2022/07/08 03:15:31;;;;;;;8.97;1.90;;;14.10;99.90;;;;;;4955487;29;20050;-69
2022/07/08 03:17:57;;;;;;;11.00;2.23;;;14.10;99.90;;;;;;4955417;28;20108;-69
2022/07/08 03:20:23;;;;;;;12.47;2.03;;;14.10;99.90;;;;;;4955514;28;20049;-69
2022/07/08 03:22:48;;;;;;;12.13;2.80;;;14.10;99.90;;;;;;4955153;29;20051;-69
2022/07/08 03:25:14;;;;;;;10.70;2.00;;;14.10;99.90;;;;;;4955650;28;20059;-68
2022/07/08 03:27:40;;;;;;;13.50;2.97;;;14.00;99.90;;;;;;4955453;28;20059;-69
2022/07/08 03:30:06;;;;;;;10.03;2.10;;;14.00;99.90;;;;;;4938085;29;20070;-69
2022/07/08 03:32:32;;;;;;;9.37;2.00;;;13.90;99.90;;;;;;4954569;29;20055;-68
2022/07/08 03:34:58;;;;;;;13.03;2.70;;;13.90;99.90;;;;;;4954979;28;20690;-68
2022/07/08 03:37:25;;;;;;;10.60;2.10;;;13.90;99.90;;;;;;4954090;29;20093;-69
2022/07/08 03:39:53;;;;;;;12.13;2.70;;;13.90;99.90;;;;;;4954942;28;20366;-69
2022/07/08 03:42:19;;;;;;;8.80;2.33;;;13.90;99.90;;;;;;4953951;29;20764;-68
2022/07/08 03:44:45;;;;;;;7.67;1.90;;;13.90;99.90;;;;;;4954981;28;20282;-69
2022/07/08 03:47:11;;;;;;;15.77;2.17;;;13.90;99.90;;;;;;4954934;28;20287;-69
2022/07/08 03:49:37;;;;;;;9.20;2.43;;;13.90;99.90;;;;;;4954173;29;20329;-68
2022/07/08 03:52:04;;;;;;;13.70;2.97;;;13.90;99.90;;;;;;4954856;28;20054;-68
2022/07/08 03:54:30;;;;;;;9.03;3.03;;;14.00;99.90;;;;;;4955039;28;20290;-68
2022/07/08 03:56:56;;;;;;;9.83;1.90;;;14.00;99.90;;;;;;4953528;29;20290;-69
2022/07/08 03:59:22;;;;;;;11.40;2.23;;;14.00;99.90;;;;;;4954881;28;20642;-68
2022/07/08 04:01:48;;;;;;;10.97;2.27;;;14.10;99.90;;;;;;4954953;29;20298;-68
2022/07/08 04:04:13;;;;;;;10.47;2.00;;;14.20;99.90;;;;;;4937788;29;20484;-68
2022/07/08 04:06:39;;;;;;;11.20;2.20;;;14.20;99.90;;;;;;4953798;29;20058;-69
2022/07/08 04:09:05;;;;;;;15.17;2.83;;;14.30;99.90;;;;;;4937385;29;20058;-68
2022/07/08 04:11:31;;;;;;;9.70;2.23;;;14.30;99.90;;;;;;4954746;28;20046;-68
2022/07/08 04:13:57;;;;;;;10.67;2.67;;;14.40;99.90;;;;;;4954272;29;20188;-69
2022/07/08 04:16:23;;;;;;;12.43;2.40;;;14.40;99.90;;;;;;4954826;29;20051;-68
2022/07/08 04:18:49;;;;;;;9.57;2.23;;;14.50;99.90;;;;;;4954889;28;20051;-68
2022/07/08 04:21:15;;;;;;;10.83;2.83;;;14.50;99.90;;;;;;4953258;29;20299;-68
2022/07/08 04:23:41;;;;;;;9.63;2.73;;;14.50;99.90;;;;;;4954734;28;20051;-68
2022/07/08 04:26:06;;;;;;;10.30;2.00;;;14.50;99.90;;;;;;4953449;29;20062;-68
2022/07/08 04:28:33;;;;;;;10.97;1.93;;;14.60;99.90;;;;;;4954280;29;20059;-69
2022/07/08 04:30:59;;;;;;;15.97;2.80;;;14.60;99.90;;;;;;4954456;28;20054;-68
2022/07/08 04:33:25;;;;;;;12.53;2.33;;;14.60;99.90;;;;;;4954609;28;20337;-68
2022/07/08 04:35:51;;;;;;;12.43;2.83;;;14.60;99.90;;;;;;4954561;29;20837;-67
2022/07/08 04:38:17;;;;;;;10.23;2.57;;;14.60;99.90;;;;;;4954213;28;20043;-68
2022/07/08 04:40:42;;;;;;;12.63;2.40;;;14.70;99.90;;;;;;4953440;29;20059;-68
2022/07/08 04:43:09;;;;;;;9.90;2.57;;;14.70;99.90;;;;;;4954168;28;20051;-69
2022/07/08 04:45:34;;;;;;;12.53;2.80;;;14.70;99.90;;;;;;4953639;28;20059;-68
2022/07/08 04:48:00;;;;;;;8.83;2.30;;;14.80;99.90;;;;;;4956936;29;20275;-69
2022/07/08 04:50:26;;;;;;;13.47;2.57;;;14.80;99.90;;;;;;4958267;29;20110;-71
2022/07/08 04:52:52;;;;;;;8.00;1.83;;;14.90;99.90;;;;;;4957002;28;20106;-68
2022/07/08 04:55:27;;;;;;;13.93;2.10;;;15.00;99.90;;;;;;4956856;29;20130;-69
2022/07/08 04:57:59;;;;;;;10.00;2.42;;;15.00;99.90;;;;;;4957001;29;20323;-68
2022/07/08 05:00:26;;;;;;;11.77;2.33;;;15.10;99.90;;;;;;4956958;29;20579;-68
2022/07/08 05:02:52;;;;;;;12.63;2.80;;;15.20;99.90;;;;;;4957797;28;20644;-69
2022/07/08 05:05:23;;;;;;;10.57;2.57;;;15.20;99.90;;;;;;4957707;28;20309;-68
2022/07/08 05:07:52;;;;;;;10.70;2.20;;;15.40;99.90;;;;;;4958109;28;20769;-69
2022/07/08 05:10:21;;;;;;;11.93;2.30;;;15.50;99.90;;;;;;4957576;28;20059;-69
2022/07/08 05:12:48;;;;;;;11.17;2.50;;;15.60;99.90;;;;;;4957052;29;20047;-69
2022/07/08 05:15:14;;;;;;;12.83;2.63;;;15.80;99.90;;;;;;4957680;28;20644;-69
2022/07/08 05:17:40;;;;;;;13.73;2.63;;;15.90;99.90;;;;;;4958012;28;20291;-69
2022/07/08 05:20:07;;;;;;;10.27;2.43;;;16.00;99.90;;;;;;4956432;29;20212;-69
2022/07/08 05:22:33;;;;;;;9.70;2.23;;;16.10;99.90;;;;;;4957588;28;20730;-69
2022/07/08 05:24:59;;;;;;;14.83;2.90;;;16.20;99.90;;;;;;4940519;29;20299;-69
2022/07/08 05:27:24;;;;;;;14.27;2.93;;;16.30;99.90;;;;;;4956309;29;20392;-69
2022/07/08 05:29:50;;;;;;;13.03;2.80;;;16.40;99.90;;;;;;4956642;29;20059;-69
2022/07/08 05:32:16;;;;;;;10.97;2.80;;;16.50;99.90;;;;;;4957361;28;20050;-69
2022/07/08 05:34:44;;;;;;;11.63;2.30;;;16.50;99.90;;;;;;4957638;28;20051;-69
2022/07/08 05:37:10;;;;;;;13.00;2.27;;;16.50;99.90;;;;;;4956035;29;20122;-70
2022/07/08 05:39:36;;;;;;;10.13;2.33;;;16.60;99.90;;;;;;4956344;29;20055;-69
2022/07/08 05:42:02;;;;;;;11.67;2.30;;;16.60;99.90;;;;;;4957226;29;20054;-72
2022/07/08 05:44:27;;;;;;;9.57;2.30;;;16.60;99.90;;;;;;4940750;29;20098;-69
2022/07/08 05:46:53;;;;;;;9.70;2.97;;;16.70;99.90;;;;;;4957279;28;20510;-69
2022/07/08 05:49:19;;;;;;;12.90;2.63;;;16.80;99.90;;;;;;4956960;28;20051;-70
2022/07/08 05:51:45;;;;;;;12.47;3.03;;;16.90;99.90;;;;;;4957143;29;20043;-70
2022/07/08 05:54:11;;;;;;;17.43;3.03;;;17.00;99.90;;;;;;4955552;29;20058;-70
2022/07/08 05:56:36;;;;;;;17.23;3.50;;;17.10;99.90;;;;;;4957294;29;20051;-70
2022/07/08 05:59:02;;;;;;;12.77;2.43;;;17.10;99.90;;;;;;4956987;28;20051;-69
2022/07/08 06:01:28;;;;;;;9.23;2.53;;;17.10;99.90;;;;;;4956696;29;20126;-69
2022/07/08 06:03:53;;;;;;;12.53;2.70;;;17.10;99.90;;;;;;4957016;28;20062;-69
2022/07/08 06:06:19;;;;;;;8.33;2.87;;;17.20;99.90;;;;;;4956644;29;20043;-70
2022/07/08 06:08:45;;;;;;;15.10;3.13;;;17.20;99.90;;;;;;4955807;29;20125;-69
2022/07/08 06:11:10;;;;;;;11.97;2.80;;;17.30;99.90;;;;;;4955642;29;20043;-70
2022/07/08 06:13:36;;;;;;;14.97;3.10;;;17.40;99.90;;;;;;4955498;29;20167;-69
2022/07/08 06:16:02;;;;;;;11.53;2.80;;;17.60;99.90;;;;;;4956750;28;20050;-69
2022/07/08 06:18:27;;;;;;;13.60;3.10;;;17.70;99.90;;;;;;4956432;29;20106;-69
2022/07/08 06:20:53;;;;;;;11.57;2.70;;;17.80;99.90;;;;;;4956468;29;20058;-69
2022/07/08 06:23:19;;;;;;;9.90;2.43;;;18.00;99.90;;;;;;4956117;29;20043;-70
2022/07/08 06:25:44;;;;;;;11.93;2.67;;;18.10;99.90;;;;;;4956652;29;20130;-69
2022/07/08 06:28:10;;;;;;;11.37;2.37;;;18.20;99.90;;;;;;4956387;28;20054;-70
2022/07/08 06:30:36;;;;;;;13.90;3.27;;;18.40;99.90;;;;;;4956557;29;20495;-69
2022/07/08 06:33:02;;;;;;;10.53;2.57;;;18.60;99.90;;;;;;4956519;29;20135;-69
2022/07/08 06:35:28;;;;;;;10.00;2.57;;;18.90;99.90;;;;;;4954888;29;20073;-70
2022/07/08 06:37:54;;;;;;;14.70;3.27;;;19.30;99.90;;;;;;4956257;28;20483;-70
2022/07/08 06:40:23;;;;;;;10.10;2.77;;;20.30;99.90;;;;;;4955241;29;20102;-70
2022/07/08 06:42:49;;;;;;;10.40;2.73;;;23.00;99.90;;;;;;4956258;29;20395;-70
2022/07/08 06:45:16;;;;;;;11.70;3.00;;;;;;;;;;4956022;28;20055;-70
2022/07/08 06:47:42;;;;;;;10.63;2.83;;;;;;;;;;4955586;29;20043;-70
2022/07/08 06:50:08;;;;;;;10.90;2.43;;;23.60;94.10;;;;;;4955997;29;20136;-70
2022/07/08 06:52:35;;;;;;;10.97;2.90;;;24.50;99.20;;;;;;4954748;29;20086;-69
2022/07/08 06:55:01;;;;;;;9.97;2.83;;;25.10;90.90;;;;;;4956201;28;20051;-69
2022/07/08 06:57:27;;;;;;;9.87;2.53;;;;;;;;;;4954909;29;20053;-69
2022/07/08 06:59:53;;;;;;;14.07;2.90;;;25.30;90.90;;;;;;4955935;29;20043;-69
2022/07/08 07:02:19;;;;;;;9.80;2.70;;;;;;;;;;4955559;28;20105;-69
2022/07/08 07:04:45;;;;;;;13.27;2.67;;;24.30;90.60;;;;;;4955904;29;20043;-69
2022/07/08 07:07:10;;;;;;;16.17;3.30;;;24.10;92.10;;;;;;4955625;28;20133;-69
2022/07/08 07:09:38;;;;;;;10.07;2.20;;;24.10;93.10;;;;;;4954184;28;20055;-69
2022/07/08 07:12:05;;;;;;;16.80;3.17;;;24.10;91.30;;;;;;4955757;28;20054;-69
2022/07/08 07:14:32;;;;;;;8.13;2.70;;;;;;;;;;4955372;28;20094;-69
2022/07/08 07:16:59;;;;;;;8.03;2.27;;;;;;;;;;4955637;29;20103;-69
2022/07/08 07:19:25;;;;;;;12.03;3.37;;;26.60;98.90;;;;;;4955327;28;20051;-69
2022/07/08 07:21:50;;;;;;;14.30;2.80;;;26.70;95.80;;;;;;4955340;28;20051;-68
2022/07/08 07:24:17;;;;;;;8.37;2.20;;;;;;;;;;4955409;28;20054;-68
2022/07/08 07:26:43;;;;;;;11.50;3.47;;;;;;;;;;4955520;29;20129;-68
2022/07/08 07:29:09;;;;;;;8.77;2.50;;;25.20;96.30;;;;;;4955577;29;20507;-69
2022/07/08 07:31:35;;;;;;;8.90;2.40;;;24.50;95.90;;;;;;4955161;28;20337;-69
2022/07/08 07:34:01;;;;;;;8.20;2.50;;;23.90;80.40;;;;;;4955265;29;20515;-66
2022/07/08 07:36:27;;;;;;;10.93;2.50;;;23.40;84.80;;;;;;4953953;29;20051;-67
2022/07/08 07:38:53;;;;;;;12.20;2.77;;;23.10;89.10;;;;;;4955131;28;20055;-68
2022/07/08 07:41:19;;;;;;;11.20;2.63;;;22.80;90.90;;;;;;4954918;28;20039;-68
2022/07/08 07:43:44;;;;;;;9.83;2.57;;;22.50;92.60;;;;;;4955089;28;20102;-68
2022/07/08 07:46:10;;;;;;;15.70;3.73;;;22.30;94.10;;;;;;4955067;29;20134;-67
2022/07/08 07:48:36;;;;;;;11.07;2.77;;;22.10;95.10;;;;;;4954782;28;20094;-68
2022/07/08 07:51:02;;;;;;;9.00;2.77;;;22.00;96.00;;;;;;4954078;29;20073;-67
2022/07/08 07:53:27;;;;;;;13.20;2.70;;;21.90;96.50;;;;;;4954924;28;20043;-67
2022/07/08 07:55:53;;;;;;;9.30;2.40;;;21.80;97.60;;;;;;4954074;29;20054;-67
2022/07/08 07:58:19;;;;;;;14.50;2.93;;;21.70;98.30;;;;;;4954680;28;20050;-68
2022/07/08 08:00:45;;;;;;;12.13;2.70;;;21.70;99.00;;;;;;4954860;28;20047;-68
2022/07/08 08:03:11;;;;;;;10.83;2.53;;;21.70;99.10;;;;;;4954984;29;20051;-68
2022/07/08 08:05:38;;;;;;;12.43;2.57;;;21.60;99.60;;;;;;4954420;28;20488;-68
2022/07/08 08:08:05;;;;;;;9.93;2.57;;;21.70;99.90;;;;;;4955049;28;20491;-67
2022/07/08 08:10:30;;;;;;;13.23;2.80;;;21.70;99.90;;;;;;4954745;28;20412;-67
2022/07/08 08:12:56;;;;;;;9.73;2.60;;;21.80;99.90;;;;;;4954740;29;20058;-67
2022/07/08 08:15:23;;;;;;;12.57;2.70;;;21.80;99.90;;;;;;4953641;29;20191;-68
2022/07/08 08:17:48;;;;;;;9.63;2.40;;;21.80;99.90;;;;;;4954775;28;20491;-67
2022/07/08 08:20:14;;;;;;;12.50;2.30;;;21.70;99.90;;;;;;4962565;28;20118;-68
2022/07/08 08:22:40;;;;;;;11.30;2.60;;;21.70;99.90;;;;;;4967527;28;20188;-67
2022/07/08 08:25:06;;;;;;;7.60;2.03;;;21.50;99.90;;;;;;4973993;28;20101;-67
2022/07/08 08:27:32;;;;;;;10.47;2.73;;;21.40;99.90;;;;;;4973487;28;20059;-68
2022/07/08 08:29:57;;;;;;;7.80;2.13;;;21.40;99.90;;;;;;4973901;28;20051;-66
2022/07/08 08:32:23;;;;;;;8.63;2.17;;;21.40;99.90;;;;;;4974100;28;20534;-66
2022/07/08 08:34:49;;;;;;;11.57;2.80;;;21.40;99.90;;;;;;4973809;28;20230;-67
2022/07/08 08:37:14;;;;;;;9.83;2.53;;;21.40;99.90;;;;;;4973213;28;20050;-67
2022/07/08 08:39:40;;;;;;;7.57;2.17;;;21.40;99.90;;;;;;4973760;28;20051;-71
2022/07/08 08:42:07;;;;;;;11.83;2.77;;;21.50;99.90;;;;;;4973801;28;20133;-67
2022/07/08 08:44:33;;;;;;;10.50;2.17;;;21.50;99.90;;;;;;4973788;28;20085;-68
2022/07/08 08:47:03;;;;;;;7.67;2.40;;;21.60;99.90;;;;;;4972588;28;20078;-67
2022/07/08 08:49:33;;;;;;;13.20;3.10;;;21.60;99.90;;;;;;4973400;28;20102;-68
2022/07/08 08:52:00;;;;;;;10.63;2.73;;;21.70;99.90;;;;;;4974045;28;20113;-68
2022/07/08 08:54:26;;;;;;;8.97;2.20;;;21.70;99.90;;;;;;4973666;28;20054;-69
2022/07/08 08:56:53;;;;;;;7.90;2.13;;;21.80;99.90;;;;;;4973820;28;20051;-69
2022/07/08 08:59:18;;;;;;;9.43;2.17;;;22.00;99.90;;;;;;4973714;28;20090;-68
2022/07/08 09:01:45;;;;;;;7.83;2.40;;;22.10;99.90;;;;;;4973343;28;20089;-67
2022/07/08 09:04:12;;;;;;;11.77;2.57;;;22.20;99.90;;;;;;4972893;28;20046;-68
2022/07/08 09:06:39;;;;;;;8.80;2.67;;;22.40;99.90;;;;;;4973518;28;20085;-68
2022/07/08 09:09:04;;;;;;;9.83;2.70;;;22.50;99.60;;;;;;4973758;28;20451;-68
2022/07/08 09:11:32;;;;;;;8.40;2.67;;;22.60;99.10;;;;;;4973317;28;20089;-74
2022/07/08 09:14:16;;;;;;;10.53;2.33;;;22.70;98.80;;;;;;4973469;28;20450;-74
2022/07/08 09:17:16;;;;;;;10.13;2.85;;;22.80;97.60;;;;;;4973416;28;20051;-74
2022/07/08 09:19:44;;;;;;;10.33;2.10;;;22.70;96.00;;;;;;4973283;28;20402;-72
2022/07/08 09:22:09;;;;;;;8.30;2.43;;;22.80;97.00;;;;;;4973539;28;20105;-73
2022/07/08 09:24:36;;;;;;;6.40;2.00;;;22.90;95.60;;;;;;4973130;28;20499;-73
2022/07/08 09:27:06;;;;;;;6.70;2.07;;;22.80;94.80;;;;;;4973239;28;20062;-71
2022/07/08 09:29:32;;;;;;;8.40;2.17;;;22.80;94.20;;;;;;4973288;28;20055;-69
2022/07/08 09:32:15;;;;;;;6.17;1.90;;;22.90;95.10;;;;;;4973757;28;20105;-68
2022/07/08 09:34:42;;;;;;;6.87;1.90;;;23.10;95.00;;;;;;4976576;28;20047;-73
2022/07/08 09:37:18;;;;;;;9.67;2.53;;;23.20;94.60;;;;;;4976758;28;20053;-73
2022/07/08 09:39:45;;;;;;;8.30;2.50;;;23.40;92.90;;;;;;4976423;28;20525;-71
2022/07/08 09:42:13;;;;;;;10.30;3.37;;;23.40;92.70;;;;;;4976792;28;20466;-75
2022/07/08 09:44:39;;;;;;;9.50;2.20;;;23.60;92.10;;;;;;4976241;28;20047;-74
2022/07/08 09:47:12;;;;;;;7.73;2.50;;;23.70;90.60;;;;;;4975867;28;20450;-67
2022/07/08 09:49:46;;;;;;;11.97;2.57;;;23.70;88.40;;;;;;4976236;28;20402;-69
2022/07/08 09:52:22;;;;;;;7.75;2.10;;;23.60;86.80;;;;;;4976635;28;20125;-69
2022/07/08 09:55:00;;;;;;;8.23;2.30;;;23.50;86.30;;;;;;4975324;28;20525;-69
2022/07/08 09:57:27;;;;;;;8.73;2.20;;;23.40;86.80;;;;;;4975731;28;20142;-68
2022/07/08 09:59:54;;;;;;;7.83;2.20;;;23.30;87.80;;;;;;4976038;28;20046;-68
2022/07/08 10:02:20;;;;;;;8.57;2.63;;;23.30;90.20;;;;;;4976155;28;20043;-68
2022/07/08 10:04:48;;;;;;;7.13;2.10;;;23.30;90.60;;;;;;4976144;28;20097;-68
2022/07/08 10:07:14;;;;;;;11.00;1.80;;;23.30;90.50;;;;;;4975306;28;20051;-69
2022/07/08 10:09:40;;;;;;;7.30;2.10;;;23.20;90.30;;;;;;4975081;28;20181;-68
2022/07/08 10:12:07;;;;;;;8.00;2.23;;;23.20;88.50;;;;;;4976097;28;20047;-67
2022/07/08 10:14:35;;;;;;;6.43;1.93;;;23.20;89.50;;;;;;4976045;28;20062;-68
2022/07/08 10:17:06;;;;;;;5.97;1.83;;;23.20;90.10;;;;;;4959475;28;20070;-67
2022/07/08 10:19:38;;;;;;;8.77;1.90;;;23.20;90.30;;;;;;4976187;28;20090;-72
2022/07/08 10:22:08;;;;;;;7.30;2.00;;;23.30;90.20;;;;;;4976029;28;20047;-68
2022/07/08 10:24:39;;;;;;;7.53;2.13;;;23.30;89.80;;;;;;4976018;28;20157;-67
2022/07/08 10:27:05;;;;;;;4.77;1.90;;;23.40;90.30;;;;;;4975681;28;20058;-68
2022/07/08 10:29:32;;;;;;;7.33;1.77;;;23.50;91.00;;;;;;4975677;28;20133;-67
2022/07/08 10:31:59;;;;;;;9.33;2.23;;;23.60;91.00;;;;;;4975782;28;20038;-68
2022/07/08 10:34:35;;;;;;;10.10;1.90;;;23.60;90.40;;;;;;4975875;28;20051;-67
2022/07/08 10:37:03;;;;;;;10.03;2.17;;;23.60;90.50;;;;;;4975509;28;20054;-68
2022/07/08 10:39:40;;;;;;;9.70;2.27;;;23.60;89.60;;;;;;4975623;28;20113;-68
2022/07/08 10:42:10;;;;;;;7.20;2.50;;;23.60;89.50;;;;;;4975569;28;20057;-69
2022/07/08 10:44:45;;;;;;;9.70;2.77;;;23.60;89.40;;;;;;4974826;28;20058;-69
2022/07/08 10:47:22;;;;;;;6.63;1.87;;;23.60;90.30;;;;;;4975547;28;20051;-69
2022/07/08 10:49:49;;;;;;;8.40;2.27;;;23.60;90.80;;;;;;4975218;28;20078;-70
2022/07/08 10:52:16;;;;;;;10.93;2.63;;;23.60;91.30;;;;;;4974407;28;20160;-68
2022/07/08 10:54:43;;;;;;;12.47;3.60;;;23.60;91.90;;;;;;4975279;28;20399;-69
2022/07/08 10:57:25;;;;;;;9.77;2.70;;;23.70;92.50;;;;;;4975148;28;20507;-68
2022/07/08 11:00:13;;;;;;;10.57;2.80;;;23.60;91.90;;;;;;4975079;28;20082;-68
2022/07/08 11:02:45;;;;;;;12.93;2.77;;;23.60;92.00;;;;;;4974934;28;20047;-68
2022/07/08 11:05:34;;;;;;;7.67;2.80;;;23.40;92.60;;;;;;4966641;28;20042;-68
2022/07/08 11:08:20;;;;;;;8.27;2.50;;;23.20;94.10;;;;;;4963824;28;20891;-68
2022/07/08 11:10:47;;;;;;;8.80;3.10;;;23.10;95.60;;;;;;4964370;28;20055;-68
2022/07/08 11:13:13;;;;;;;12.83;3.57;;;23.00;96.00;;;;;;4974930;28;20050;-67
2022/07/08 11:15:39;;;;;;;13.87;3.17;;;23.00;96.50;;;;;;4975109;28;20046;-69
2022/07/08 11:18:06;;;;;;;8.03;3.00;;;23.00;97.40;;;;;;4973671;28;20426;-69
2022/07/08 11:20:32;;;;;;;10.00;3.00;;;23.00;97.90;;;;;;4975066;28;20047;-68
2022/07/08 11:23:03;;;;;;;10.03;3.10;;;23.10;97.70;;;;;;4973421;28;20551;-69
2022/07/08 11:25:28;;;;;;;9.87;3.13;;;23.10;97.30;;;;;;4974799;28;20435;-69
2022/07/08 11:27:54;;;;;;;9.50;3.20;;;23.10;97.50;;;;;;4974371;28;20062;-68
2022/07/08 11:30:20;;;;;;;10.83;3.23;;;23.20;97.20;;;;;;4973815;28;20137;-68
2022/07/08 11:32:50;;;;;;;9.40;3.13;;;23.10;97.50;;;;;;4974810;28;20053;-69
2022/07/08 11:35:19;;;;;;;9.40;3.33;;;23.20;98.30;;;;;;4974723;28;20054;-69
2022/07/08 11:37:45;;;;;;;15.40;3.60;;;23.20;98.80;;;;;;4973427;28;20055;-69
2022/07/08 11:40:12;;;;;;;12.47;3.17;;;23.30;98.80;;;;;;4974533;28;20412;-70
2022/07/08 11:42:40;;;;;;;12.10;3.20;;;23.30;98.10;;;;;;4974608;28;20050;-68
2022/07/08 11:45:07;;;;;;;11.50;3.50;;;23.30;98.80;;;;;;4974349;28;20046;-68
2022/07/08 11:47:33;;;;;;;13.13;3.23;;;23.30;98.70;;;;;;4973273;28;20054;-68
2022/07/08 11:49:59;;;;;;;10.37;3.40;;;23.30;98.70;;;;;;4974176;28;20125;-69
2022/07/08 11:52:27;;;;;;;12.07;3.73;;;23.40;99.10;;;;;;4974352;28;20431;-67
2022/07/08 11:54:53;;;;;;;13.37;3.77;;;23.40;99.10;;;;;;4973838;28;20113;-67
2022/07/08 11:57:19;;;;;;;11.60;4.10;;;23.40;99.60;;;;;;4974377;28;20110;-67
2022/07/08 11:59:48;;;;;;;13.13;3.47;;;23.50;99.50;;;;;;4974449;28;20113;-68
2022/07/08 12:02:20;;;;;;;10.33;3.67;;;23.60;99.50;;;;;;4974364;28;20443;-68
2022/07/08 12:04:50;;;;;;;12.50;4.20;;;23.60;99.30;;;;;;4974248;28;20057;-67
2022/07/08 12:07:22;;;;;;;13.20;4.10;;;23.60;99.30;;;;;;4974193;28;20054;-67
2022/07/08 12:09:59;;;;;;;12.87;3.70;;;23.50;98.90;;;;;;4974071;28;20046;-70
2022/07/08 12:12:27;;;;;;;10.43;3.20;;;23.40;99.60;;;;;;4974221;28;20078;-68
2022/07/08 12:14:53;;;;;;;13.73;4.03;;;23.50;99.90;;;;;;4973841;28;20053;-68
2022/07/08 12:17:27;;;;;;;11.17;3.57;;;23.40;99.90;;;;;;4972860;28;20053;-67
2022/07/08 12:19:54;;;;;;;10.27;3.30;;;23.50;99.90;;;;;;4965035;28;20046;-70
2022/07/08 12:22:45;;;;;;;7.70;2.70;;;23.50;99.40;;;;;;4974482;28;20427;-70
2022/07/08 12:25:19;;;;;;;10.03;2.93;;;23.60;99.90;;;;;;4973797;28;20133;-70
2022/07/08 12:28:03;;;;;;;11.67;3.33;;;23.60;99.90;;;;;;4973823;28;20511;-70
2022/07/08 12:30:30;;;;;;;10.45;2.95;;;23.60;99.40;;;;;;4974099;28;20065;-71
2022/07/08 12:33:01;;;;;;;10.63;2.70;;;23.60;99.70;;;;;;4972854;28;20414;-71
2022/07/08 12:35:33;;;;;;;10.00;3.00;;;23.60;99.90;;;;;;4973954;28;20046;-70
2022/07/08 12:38:07;;;;;;;10.07;3.43;;;23.60;99.90;;;;;;4972753;28;20483;-68
2022/07/08 12:40:43;;;;;;;11.00;3.05;;;23.70;99.90;;;;;;4973821;28;20554;-67
2022/07/08 12:43:11;;;;;;;10.77;2.93;;;23.70;99.90;;;;;;4973565;28;20094;-67